createdAt,value
2023-04-09T00:00:13.799Z,96753.59
2023-04-09T00:03:25.561Z,96751.78
2023-04-09T00:06:43.445Z,96749.97
2023-04-09T00:09:46.287Z,96746.59
2023-04-09T00:12:49.757Z,96745.03
2023-04-09T00:15:59.394Z,96744.91
2023-04-09T00:19:12.086Z,96736.94
2023-04-09T00:22:16.615Z,96737.09
2023-04-09T00:25:28.529Z,96737.19
2023-04-09T00:28:37.050Z,96729.25
2023-04-09T00:31:50.257Z,96735.50
2023-04-09T00:34:55.405Z,96732.00
2023-04-09T00:38:01.365Z,96738.16
2023-04-09T00:41:06.712Z,96736.47
2023-04-09T00:44:11.426Z,96739.75
2023-04-09T00:47:16.073Z,96733.59
2023-04-09T00:50:30.302Z,96732.22
2023-04-09T00:53:35.780Z,96732.84
2023-04-09T00:56:41.740Z,96734.53
2023-04-09T00:59:47.105Z,96732.75
2023-04-09T01:02:54.060Z,96730.94
2023-04-09T01:06:47.147Z,96730.09
2023-04-09T01:10:38.195Z,96732.97
2023-04-09T01:14:08.447Z,96735.72
2023-04-09T01:17:47.187Z,96728.75
2023-04-09T01:21:27.567Z,96737.53
2023-04-09T01:28:39.396Z,96720.06
2023-04-09T01:31:47.759Z,96731.63
2023-04-09T01:34:53.051Z,96728.25
2023-04-09T01:38:05.723Z,96728.13
2023-04-09T01:41:19.740Z,96740.75
2023-04-09T01:44:26.950Z,96736.44
2023-04-09T01:47:38.874Z,96738.34
2023-04-09T01:50:45.072Z,96741.84
2023-04-09T01:53:50.742Z,96741.00
2023-04-09T01:56:53.170Z,96738.25
2023-04-09T01:59:57.735Z,96736.44
2023-04-09T02:03:19.161Z,96740.75
2023-04-09T02:10:21.354Z,96746.31
2023-04-09T02:13:50.254Z,96740.16
2023-04-09T02:16:54.842Z,96738.34
2023-04-09T02:19:57.499Z,96736.75
2023-04-09T02:23:01.590Z,96737.22
2023-04-09T02:26:07.003Z,96731.72
2023-04-09T02:29:11.276Z,96730.88
2023-04-09T02:32:14.918Z,96733.63
2023-04-09T02:35:18.255Z,96731.81
2023-04-09T02:38:25.895Z,96732.78
2023-04-09T02:41:30.425Z,96731.94
2023-04-09T02:44:42.287Z,96728.53
2023-04-09T02:47:47.882Z,96730.34
2023-04-09T02:50:52.216Z,96732.19
2023-04-09T02:53:58.077Z,96727.00
2023-04-09T02:57:01.279Z,96732.28
2023-04-09T03:00:06.282Z,96722.88
2023-04-09T03:03:19.485Z,96725.41
2023-04-09T03:06:25.638Z,96717.56
2023-04-09T03:09:30.308Z,96719.50
2023-04-09T03:12:34.419Z,96710.81
2023-04-09T03:15:46.029Z,96711.66
2023-04-09T03:18:58.189Z,96714.44
2023-04-09T03:22:03.450Z,96710.19
2023-04-09T03:25:10.351Z,96710.44
2023-04-09T03:28:16.185Z,96704.41
2023-04-09T03:31:30.032Z,96701.16
2023-04-09T03:34:34.066Z,96707.78
2023-04-09T03:37:39.084Z,96714.91
2023-04-09T03:44:28.642Z,96709.91
2023-04-09T03:47:39.816Z,96703.81
2023-04-09T03:50:47.346Z,96706.47
2023-04-09T03:54:00.779Z,96704.97
2023-04-09T03:57:05.333Z,96708.47
2023-04-09T04:00:18.431Z,96699.56
2023-04-09T04:03:51.251Z,96702.44
2023-04-09T04:07:01.536Z,96707.50
2023-04-09T04:10:16.994Z,96707.63
2023-04-09T04:13:32.142Z,96709.53
2023-04-09T04:16:39.849Z,96713.66
2023-04-09T04:19:52.366Z,96711.13
2023-04-09T04:23:06.481Z,96720.03
2023-04-09T04:26:14.042Z,96698.84
2023-04-09T04:29:17.248Z,96697.88
2023-04-09T04:32:37.480Z,96703.81
2023-04-09T04:35:48.700Z,96705.72
2023-04-09T04:39:34.301Z,96724.47
2023-04-09T04:42:57.667Z,96744.09
2023-04-09T04:46:03.648Z,96736.72
2023-04-09T04:49:10.724Z,96756.31
2023-04-09T04:52:23.664Z,96754.00
2023-04-09T04:55:31.007Z,96753.16
2023-04-09T04:58:45.502Z,96765.66
2023-04-09T05:01:54.547Z,96758.16
2023-04-09T05:04:57.193Z,96766.00
2023-04-09T05:08:10.135Z,96765.84
2023-04-09T05:11:16.928Z,96766.59
2023-04-09T05:14:26.425Z,96769.25
2023-04-09T05:17:30.228Z,96767.25
2023-04-09T05:20:35.017Z,96764.34
2023-04-09T05:23:45.331Z,96759.59
2023-04-09T05:30:13.289Z,96753.69
2023-04-09T05:33:30.339Z,96763.03
2023-04-09T05:36:35.716Z,96753.88
2023-04-09T05:39:43.230Z,96751.13
2023-04-09T05:42:50.115Z,96764.88
2023-04-09T05:46:04.125Z,96764.97
2023-04-09T05:49:09.931Z,96773.06
2023-04-09T05:52:25.129Z,96772.91
2023-04-09T05:55:39.809Z,96777.16
2023-04-09T05:58:47.048Z,96766.44
2023-04-09T06:01:53.095Z,96781.13
2023-04-09T06:05:01.024Z,96774.03
2023-04-09T06:08:06.315Z,96780.81
2023-04-09T06:11:20.510Z,96780.69
2023-04-09T06:14:25.323Z,96786.97
2023-04-09T06:17:34.566Z,96794.66
2023-04-09T06:20:51.354Z,96799.00
2023-04-09T06:23:57.127Z,96798.06
2023-04-09T06:27:04.016Z,96791.06
2023-04-09T06:30:08.249Z,96797.31
2023-04-09T06:33:15.088Z,96795.31
2023-04-09T06:36:20.433Z,96800.59
2023-04-09T06:39:31.564Z,96807.34
2023-04-09T06:42:34.965Z,96798.22
2023-04-09T06:45:51.533Z,96789.81
2023-04-09T06:48:54.823Z,96797.31
2023-04-09T06:51:56.989Z,96795.78
2023-04-09T06:55:02.647Z,96801.06
2023-04-09T06:58:08.315Z,96795.41
2023-04-09T07:01:20.464Z,96800.03
2023-04-09T07:04:24.155Z,96804.00
2023-04-09T07:07:36.255Z,96797.50
2023-04-09T07:10:53.280Z,96805.88
2023-04-09T07:14:04.645Z,96808.03
2023-04-09T07:17:10.270Z,96802.38
2023-04-09T07:20:14.209Z,96798.41
2023-04-09T07:23:20.555Z,96805.16
2023-04-09T07:26:23.609Z,96805.28
2023-04-09T07:29:35.564Z,96805.16
2023-04-09T07:32:40.336Z,96806.72
2023-04-09T07:35:45.747Z,96804.72
2023-04-09T07:38:50.109Z,96803.41
2023-04-09T07:41:56.473Z,96803.88
2023-04-09T07:44:58.697Z,96804.38
2023-04-09T07:48:04.256Z,96809.22
2023-04-09T07:51:12.155Z,96811.25
2023-04-09T07:54:18.614Z,96809.56
2023-04-09T07:57:31.055Z,96809.56
2023-04-09T08:00:44.058Z,96809.44
2023-04-09T08:07:11.234Z,96810.34
2023-04-09T08:10:25.488Z,96813.97
2023-04-09T08:13:30.855Z,96808.28
2023-04-09T08:16:42.348Z,96809.47
2023-04-09T08:19:48.392Z,96809.91
2023-04-09T08:22:54.527Z,96810.25
2023-04-09T08:26:09.112Z,96802.16
2023-04-09T08:29:14.406Z,96807.34
2023-04-09T08:32:19.472Z,96802.34
2023-04-09T08:35:21.538Z,96803.66
2023-04-09T08:38:23.618Z,96810.16
2023-04-09T08:41:48.541Z,96807.56
2023-04-09T08:44:52.174Z,96808.16
2023-04-09T08:47:54.108Z,96802.44
2023-04-09T08:50:57.146Z,96800.59
2023-04-09T08:54:08.710Z,96804.59
2023-04-09T08:57:13.457Z,96798.88
2023-04-09T09:00:18.073Z,96804.75
2023-04-09T09:03:23.400Z,96798.47
2023-04-09T09:06:35.638Z,96800.47
2023-04-09T09:10:01.068Z,96806.72
2023-04-09T09:13:28.919Z,96806.44
2023-04-09T09:16:38.512Z,96823.72
2023-04-09T09:19:40.770Z,96801.28
2023-04-09T09:22:54.955Z,96812.38
2023-04-09T09:25:57.444Z,96809.56
2023-04-09T09:29:07.925Z,96807.47
2023-04-09T09:32:16.247Z,96815.22
2023-04-09T09:35:19.909Z,96803.44
2023-04-09T09:38:25.893Z,96811.06
2023-04-09T09:41:31.549Z,96819.91
2023-04-09T09:44:34.701Z,96813.06
2023-04-09T09:47:45.733Z,96813.69
2023-04-09T09:54:11.771Z,96812.19
2023-04-09T09:57:27.927Z,96815.16
2023-04-09T10:00:36.438Z,96803.09
2023-04-09T10:03:42.922Z,96803.16
2023-04-09T10:06:49.272Z,96804.28
2023-04-09T10:09:59.185Z,96807.13
2023-04-09T10:13:00.841Z,96797.19
2023-04-09T10:16:12.089Z,96801.97
2023-04-09T10:19:16.146Z,96799.47
2023-04-09T10:22:38.610Z,96803.25
2023-04-09T10:25:44.952Z,96797.75
2023-04-09T10:28:50.730Z,96801.97
2023-04-09T10:32:15.761Z,96796.66
2023-04-09T10:35:27.658Z,96796.53
2023-04-09T10:38:51.202Z,96802.56
2023-04-09T10:42:10.203Z,96794.44
2023-04-09T10:45:22.921Z,96795.13
2023-04-09T10:48:31.142Z,96796.25
2023-04-09T10:51:42.324Z,96790.38
2023-04-09T10:58:07.199Z,96787.28
2023-04-09T11:01:23.909Z,96788.94
2023-04-09T11:05:02.208Z,96785.16
2023-04-09T11:08:18.034Z,96786.97
2023-04-09T11:11:34.960Z,96797.06
2023-04-09T11:14:40.546Z,96791.72
2023-04-09T11:17:45.548Z,96784.66
2023-04-09T11:20:50.801Z,96784.91
2023-04-09T11:23:55.351Z,96783.06
2023-04-09T11:27:00.480Z,96787.59
2023-04-09T11:30:04.449Z,96788.25
2023-04-09T11:33:19.162Z,96784.25
2023-04-09T11:36:22.862Z,96779.56
2023-04-09T11:39:34.733Z,96783.75
2023-04-09T11:42:44.190Z,96772.31
2023-04-09T11:45:51.578Z,96775.56
2023-04-09T11:52:23.952Z,96780.81
2023-04-09T11:55:36.264Z,96783.59
2023-04-09T11:58:51.255Z,96777.97
2023-04-09T12:02:15.650Z,96772.63
2023-04-09T12:05:37.967Z,96777.72
2023-04-09T12:09:03.824Z,96773.22
2023-04-09T12:12:12.010Z,96773.47
2023-04-09T12:15:39.347Z,96768.81
2023-04-09T12:18:43.080Z,96766.44
2023-04-09T12:21:59.793Z,96785.41
2023-04-09T12:25:04.884Z,96779.22
2023-04-09T12:28:19.417Z,96784.34
2023-04-09T12:31:33.082Z,96780.72
2023-04-09T12:34:46.498Z,96791.28
2023-04-09T12:37:50.109Z,96778.56
2023-04-09T12:40:54.927Z,96775.06
2023-04-09T12:43:57.214Z,96773.22
2023-04-09T12:47:01.709Z,96778.16
2023-04-09T12:50:05.446Z,96766.44
2023-04-09T12:53:18.304Z,96763.78
2023-04-09T12:56:31.660Z,96766.13
2023-04-09T12:59:34.557Z,96759.88
2023-04-09T13:02:38.660Z,96749.25
2023-04-09T13:05:44.845Z,96756.66
2023-04-09T13:12:14.893Z,96755.06
2023-04-09T13:15:21.362Z,96754.69
2023-04-09T13:18:32.678Z,96755.97
2023-04-09T13:21:47.732Z,96761.94
2023-04-09T13:24:53.289Z,96761.38
2023-04-09T13:31:23.712Z,96758.44
2023-04-09T13:34:38.432Z,96767.91
2023-04-09T13:37:48.134Z,96757.41
2023-04-09T13:40:55.436Z,96751.50
2023-04-09T13:44:04.398Z,96760.91
2023-04-09T13:47:08.878Z,96758.09
2023-04-09T13:50:14.957Z,96748.44
2023-04-09T13:53:17.554Z,96751.25
2023-04-09T13:56:28.934Z,96752.53
2023-04-09T13:59:31.628Z,96753.47
2023-04-09T14:02:36.534Z,96749.28
2023-04-09T14:05:40.655Z,96748.63
2023-04-09T14:08:52.093Z,96743.47
2023-04-09T14:11:58.813Z,96743.88
2023-04-09T14:15:03.440Z,96743.91
2023-04-09T14:18:08.167Z,96738.25
2023-04-09T14:21:13.066Z,96732.53
2023-04-09T14:24:15.736Z,96735.53
2023-04-09T14:27:20.739Z,96729.03
2023-04-09T14:30:35.614Z,96734.47
2023-04-09T14:33:41.785Z,96738.16
2023-04-09T14:36:44.768Z,96718.00
2023-04-09T14:39:48.571Z,96721.38
2023-04-09T14:42:51.136Z,96724.44
2023-04-09T14:45:59.876Z,96722.69
2023-04-09T14:49:05.011Z,96726.72
2023-04-09T14:52:13.986Z,96723.84
2023-04-09T14:55:19.240Z,96718.44
2023-04-09T14:58:24.639Z,96718.63
2023-04-09T15:01:30.745Z,96727.06
2023-04-09T15:04:44.933Z,96715.50
2023-04-09T15:07:51.492Z,96714.66
2023-04-09T15:11:02.910Z,96718.06
2023-04-09T15:14:06.721Z,96724.25
2023-04-09T15:17:18.256Z,96714.31
2023-04-09T15:20:22.849Z,96712.66
2023-04-09T15:23:28.894Z,96716.06
2023-04-09T15:26:45.811Z,96692.81
2023-04-09T15:33:09.714Z,96699.47
2023-04-09T15:36:22.986Z,96702.75
2023-04-09T15:39:36.642Z,96696.41
2023-04-09T15:42:49.060Z,96698.13
2023-04-09T15:45:55.165Z,96696.66
2023-04-09T15:48:59.892Z,96697.34
2023-04-09T15:52:04.722Z,96703.50
2023-04-09T15:55:11.663Z,96716.22
2023-04-09T15:58:15.883Z,96710.06
2023-04-09T16:01:19.736Z,96716.19
2023-04-09T16:04:25.025Z,96709.28
2023-04-09T16:07:29.789Z,96705.50
2023-04-09T16:13:51.900Z,96702.47
2023-04-09T16:16:54.220Z,96714.53
2023-04-09T16:20:06.914Z,96707.28
2023-04-09T16:23:12.234Z,96706.91
2023-04-09T16:26:19.817Z,96702.41
2023-04-09T16:29:24.767Z,96712.53
2023-04-09T16:32:35.878Z,96715.59
2023-04-09T16:35:42.333Z,96719.84
2023-04-09T16:38:54.690Z,96718.81
2023-04-09T16:41:59.006Z,96719.44
2023-04-09T16:45:09.041Z,96722.72
2023-04-09T16:48:15.636Z,96719.94
2023-04-09T16:51:28.896Z,96732.59
2023-04-09T16:54:37.022Z,96730.50
2023-04-09T16:57:42.199Z,96731.25
2023-04-09T17:00:50.004Z,96722.97
2023-04-09T17:03:56.594Z,96731.38
2023-04-09T17:07:01.559Z,96727.72
2023-04-09T17:10:07.041Z,96724.47
2023-04-09T17:13:18.575Z,96733.41
2023-04-09T17:16:24.173Z,96732.78
2023-04-09T17:19:30.033Z,96734.88
2023-04-09T17:22:35.420Z,96734.41
2023-04-09T17:25:41.173Z,96731.09
2023-04-09T17:28:50.118Z,96741.31
2023-04-09T17:31:59.702Z,96731.13
2023-04-09T17:35:17.372Z,96741.59
2023-04-09T17:38:24.056Z,96736.72
2023-04-09T17:41:35.048Z,96735.78
2023-04-09T17:44:41.572Z,96742.03
2023-04-09T17:51:14.298Z,96750.19
2023-04-09T17:54:19.006Z,96752.78
2023-04-09T17:57:23.233Z,96748.16
2023-04-09T18:00:28.961Z,96747.19
2023-04-09T18:03:35.076Z,96755.06
2023-04-09T18:06:38.680Z,96754.53
2023-04-09T18:09:45.653Z,96757.34
2023-04-09T18:12:51.580Z,96759.31
2023-04-09T18:15:53.792Z,96751.47
2023-04-09T18:19:07.459Z,96761.16
2023-04-09T18:22:19.461Z,96764.53
2023-04-09T18:25:24.503Z,96767.47
2023-04-09T18:28:33.173Z,96769.25
2023-04-09T18:31:39.160Z,96777.34
2023-04-09T18:34:45.133Z,96776.63
2023-04-09T18:37:50.331Z,96790.06
2023-04-09T18:40:56.713Z,96785.69
2023-04-09T18:44:01.423Z,96793.75
2023-04-09T18:47:06.108Z,96803.63
2023-04-09T18:50:11.600Z,96798.41
2023-04-09T18:53:23.937Z,96804.63
2023-04-09T18:56:32.774Z,96806.53
2023-04-09T18:59:38.233Z,96805.47
2023-04-09T19:02:43.489Z,96810.88
2023-04-09T19:05:48.806Z,96811.91
2023-04-09T19:08:58.773Z,96812.69
2023-04-09T19:12:08.645Z,96816.69
2023-04-09T19:15:14.282Z,96818.31
2023-04-09T19:18:19.280Z,96827.88
2023-04-09T19:21:31.992Z,96820.66
2023-04-09T19:24:37.279Z,96825.63
2023-04-09T19:27:49.982Z,96821.06
2023-04-09T19:30:53.099Z,96825.28
2023-04-09T19:33:56.851Z,96833.06
2023-04-09T19:37:02.735Z,96833.41
2023-04-09T19:40:08.473Z,96834.03
2023-04-09T19:43:13.864Z,96834.66
2023-04-09T19:46:28.845Z,96820.31
2023-04-09T19:49:34.258Z,96818.97
2023-04-09T19:52:47.944Z,96822.97
2023-04-09T19:55:53.897Z,96824.41
2023-04-09T19:58:59.211Z,96825.75
2023-04-09T20:02:03.495Z,96814.16
2023-04-09T20:05:10.615Z,96820.56
2023-04-09T20:08:16.227Z,96827.16
2023-04-09T20:11:28.161Z,96833.81
2023-04-09T20:14:40.128Z,96829.81
2023-04-09T20:17:45.035Z,96832.09
2023-04-09T20:20:51.179Z,96833.25
2023-04-09T20:23:54.127Z,96835.31
2023-04-09T20:26:56.327Z,96826.88
2023-04-09T20:30:01.230Z,96831.66
2023-04-09T20:33:06.235Z,96834.91
2023-04-09T20:36:21.704Z,96838.88
2023-04-09T20:39:29.786Z,96856.09
2023-04-09T20:42:36.775Z,96847.75
2023-04-09T20:45:47.840Z,96834.97
2023-04-09T20:48:55.414Z,96838.78
2023-04-09T20:52:05.023Z,96833.94
2023-04-09T20:55:17.099Z,96840.31
2023-04-09T20:58:22.319Z,96834.63
2023-04-09T21:01:28.135Z,96851.72
2023-04-09T21:04:33.648Z,96845.78
2023-04-09T21:07:48.319Z,96852.28
2023-04-09T21:10:53.411Z,96847.19
2023-04-09T21:17:15.694Z,96848.59
2023-04-09T21:20:21.347Z,96846.31
2023-04-09T21:23:27.017Z,96837.84
2023-04-09T21:26:53.378Z,96856.50
2023-04-09T21:29:58.976Z,96857.66
2023-04-09T21:33:06.084Z,96847.41
2023-04-09T21:36:11.879Z,96846.91
2023-04-09T21:39:17.101Z,96839.41
2023-04-09T21:42:31.345Z,96845.88
2023-04-09T21:45:38.217Z,96849.91
2023-04-09T21:48:43.436Z,96848.56
2023-04-09T21:51:55.567Z,96838.50
2023-04-09T21:55:01.225Z,96842.97
2023-04-09T21:58:08.244Z,96847.84
2023-04-09T22:01:19.187Z,96846.59
2023-04-09T22:04:34.297Z,96830.75
2023-04-09T22:07:51.324Z,96832.75
2023-04-09T22:11:02.981Z,96839.94
2023-04-09T22:14:09.297Z,96847.16
2023-04-09T22:17:23.072Z,96848.44
2023-04-09T22:20:27.032Z,96853.16
2023-04-09T22:23:32.107Z,96849.16
2023-04-09T22:26:38.388Z,96852.13
2023-04-09T22:29:50.997Z,96850.63
2023-04-09T22:32:56.760Z,96836.22
2023-04-09T22:36:07.679Z,96835.19
2023-04-09T22:39:13.208Z,96834.56
2023-04-09T22:42:18.791Z,96831.28
2023-04-09T22:45:24.858Z,96834.25
2023-04-09T22:48:44.141Z,96833.59
2023-04-09T22:51:50.843Z,96828.63
2023-04-09T22:54:57.214Z,96824.47
2023-04-09T22:58:02.693Z,96828.41
2023-04-09T23:01:12.868Z,96823.53
2023-04-09T23:04:18.943Z,96831.47
2023-04-09T23:07:26.769Z,96843.91
2023-04-09T23:10:31.536Z,96836.41
2023-04-09T23:13:42.322Z,96850.47
2023-04-09T23:16:54.981Z,96850.78
2023-04-09T23:19:57.313Z,96853.53
2023-04-09T23:23:01.730Z,96855.41
2023-04-09T23:26:27.163Z,96854.66
2023-04-09T23:29:29.026Z,96847.91
2023-04-09T23:32:40.795Z,96841.84
2023-04-09T23:35:46.142Z,96840.38
2023-04-09T23:38:52.193Z,96847.56
2023-04-09T23:42:01.262Z,96841.63
2023-04-09T23:45:14.899Z,96841.81
2023-04-09T23:48:17.758Z,96826.16
2023-04-09T23:51:22.763Z,96840.44
2023-04-09T23:54:32.193Z,96829.97
2023-04-09T23:57:45.540Z,96831.13
